sensor_id;sensor_type;location;lat;lon;timestamp;P1;durP1;ratioP1;P2;durP2;ratioP2
359;SDS011;168;48.872;9.226;2023-07-02T00:02:01;8.17;;;7.40;;
359;SDS011;168;48.872;9.226;2023-07-02T00:04:29;7.33;;;6.63;;
359;SDS011;168;48.872;9.226;2023-07-02T00:06:56;7.50;;;6.80;;
359;SDS011;168;48.872;9.226;2023-07-02T00:09:25;7.90;;;6.90;;
359;SDS011;168;48.872;9.226;2023-07-02T00:11:52;7.70;;;7.00;;
359;SDS011;168;48.872;9.226;2023-07-02T00:14:20;7.63;;;6.93;;
359;SDS011;168;48.872;9.226;2023-07-02T00:16:47;8.13;;;7.40;;
359;SDS011;168;48.872;9.226;2023-07-02T00:19:14;8.37;;;7.20;;
359;SDS011;168;48.872;9.226;2023-07-02T00:21:43;7.30;;;6.60;;
359;SDS011;168;48.872;9.226;2023-07-02T00:24:10;7.77;;;7.07;;
359;SDS011;168;48.872;9.226;2023-07-02T00:26:39;8.37;;;7.57;;
359;SDS011;168;48.872;9.226;2023-07-02T00:29:07;7.40;;;6.53;;
359;SDS011;168;48.872;9.226;2023-07-02T00:31:35;7.07;;;6.47;;
359;SDS011;168;48.872;9.226;2023-07-02T00:34:02;7.77;;;6.60;;
359;SDS011;168;48.872;9.226;2023-07-02T00:36:30;9.23;;;6.60;;
359;SDS011;168;48.872;9.226;2023-07-02T00:38:58;7.23;;;6.63;;
359;SDS011;168;48.872;9.226;2023-07-02T00:41:25;7.27;;;6.57;;
359;SDS011;168;48.872;9.226;2023-07-02T00:43:54;7.07;;;6.40;;
359;SDS011;168;48.872;9.226;2023-07-02T00:46:22;7.40;;;6.70;;
359;SDS011;168;48.872;9.226;2023-07-02T00:48:51;7.60;;;7.00;;
359;SDS011;168;48.872;9.226;2023-07-02T00:51:20;7.33;;;6.63;;
359;SDS011;168;48.872;9.226;2023-07-02T00:53:49;7.40;;;6.43;;
359;SDS011;168;48.872;9.226;2023-07-02T00:56:18;7.90;;;6.67;;
359;SDS011;168;48.872;9.226;2023-07-02T00:58:46;6.80;;;6.20;;
359;SDS011;168;48.872;9.226;2023-07-02T01:01:18;6.83;;;6.13;;
359;SDS011;168;48.872;9.226;2023-07-02T01:03:49;6.40;;;5.80;;
359;SDS011;168;48.872;9.226;2023-07-02T01:06:22;7.93;;;7.23;;
359;SDS011;168;48.872;9.226;2023-07-02T01:08:51;8.33;;;5.90;;
359;SDS011;168;48.872;9.226;2023-07-02T01:11:19;6.60;;;6.00;;
359;SDS011;168;48.872;9.226;2023-07-02T01:13:49;7.30;;;6.33;;
359;SDS011;168;48.872;9.226;2023-07-02T01:16:20;8.60;;;6.23;;
359;SDS011;168;48.872;9.226;2023-07-02T01:18:49;7.03;;;5.80;;
359;SDS011;168;48.872;9.226;2023-07-02T01:21:22;7.80;;;6.73;;
359;SDS011;168;48.872;9.226;2023-07-02T01:23:51;6.43;;;5.80;;
359;SDS011;168;48.872;9.226;2023-07-02T01:26:18;6.77;;;6.17;;
359;SDS011;168;48.872;9.226;2023-07-02T01:28:46;7.10;;;6.40;;
359;SDS011;168;48.872;9.226;2023-07-02T01:31:13;7.10;;;6.10;;
359;SDS011;168;48.872;9.226;2023-07-02T01:33:41;6.90;;;6.20;;
359;SDS011;168;48.872;9.226;2023-07-02T01:36:08;6.07;;;5.57;;
359;SDS011;168;48.872;9.226;2023-07-02T01:38:37;7.67;;;5.70;;
359;SDS011;168;48.872;9.226;2023-07-02T01:41:04;6.10;;;5.20;;
359;SDS011;168;48.872;9.226;2023-07-02T01:43:32;6.77;;;6.17;;
359;SDS011;168;48.872;9.226;2023-07-02T01:45:59;6.73;;;5.90;;
359;SDS011;168;48.872;9.226;2023-07-02T01:48:27;6.40;;;5.30;;
359;SDS011;168;48.872;9.226;2023-07-02T01:50:55;6.27;;;5.73;;
359;SDS011;168;48.872;9.226;2023-07-02T01:53:22;6.03;;;5.43;;
359;SDS011;168;48.872;9.226;2023-07-02T01:55:51;5.83;;;5.33;;
359;SDS011;168;48.872;9.226;2023-07-02T01:58:18;6.83;;;6.13;;
359;SDS011;168;48.872;9.226;2023-07-02T02:00:46;7.10;;;5.57;;
359;SDS011;168;48.872;9.226;2023-07-02T02:03:13;6.43;;;5.70;;
359;SDS011;168;48.872;9.226;2023-07-02T02:05:41;6.00;;;5.50;;
359;SDS011;168;48.872;9.226;2023-07-02T02:08:08;7.03;;;6.30;;
359;SDS011;168;48.872;9.226;2023-07-02T02:10:35;5.90;;;5.40;;
359;SDS011;168;48.872;9.226;2023-07-02T02:13:04;5.60;;;5.10;;
359;SDS011;168;48.872;9.226;2023-07-02T02:15:31;7.53;;;6.23;;
359;SDS011;168;48.872;9.226;2023-07-02T02:17:59;5.90;;;5.13;;
359;SDS011;168;48.872;9.226;2023-07-02T02:20:26;6.73;;;6.03;;
359;SDS011;168;48.872;9.226;2023-07-02T02:22:53;6.60;;;6.00;;
359;SDS011;168;48.872;9.226;2023-07-02T02:25:21;6.93;;;6.33;;
359;SDS011;168;48.872;9.226;2023-07-02T02:27:48;6.73;;;5.40;;
359;SDS011;168;48.872;9.226;2023-07-02T02:30:17;6.67;;;5.87;;
359;SDS011;168;48.872;9.226;2023-07-02T02:32:44;9.47;;;6.03;;
359;SDS011;168;48.872;9.226;2023-07-02T02:35:12;6.50;;;5.90;;
359;SDS011;168;48.872;9.226;2023-07-02T02:37:40;10.80;;;6.20;;
359;SDS011;168;48.872;9.226;2023-07-02T02:40:08;6.33;;;5.83;;
359;SDS011;168;48.872;9.226;2023-07-02T02:42:36;9.40;;;5.70;;
359;SDS011;168;48.872;9.226;2023-07-02T02:45:03;6.17;;;5.53;;
359;SDS011;168;48.872;9.226;2023-07-02T02:47:32;6.97;;;5.53;;
359;SDS011;168;48.872;9.226;2023-07-02T02:50:00;6.40;;;5.80;;
359;SDS011;168;48.872;9.226;2023-07-02T02:52:27;6.10;;;5.50;;
359;SDS011;168;48.872;9.226;2023-07-02T02:54:55;7.23;;;5.77;;
359;SDS011;168;48.872;9.226;2023-07-02T02:57:22;5.33;;;4.60;;
359;SDS011;168;48.872;9.226;2023-07-02T02:59:49;8.17;;;5.60;;
359;SDS011;168;48.872;9.226;2023-07-02T03:02:17;6.10;;;5.17;;
359;SDS011;168;48.872;9.226;2023-07-02T03:04:45;6.77;;;5.30;;
359;SDS011;168;48.872;9.226;2023-07-02T03:07:14;7.13;;;5.30;;
359;SDS011;168;48.872;9.226;2023-07-02T03:09:42;5.40;;;4.80;;
359;SDS011;168;48.872;9.226;2023-07-02T03:12:09;9.00;;;5.13;;
359;SDS011;168;48.872;9.226;2023-07-02T03:14:37;5.53;;;4.93;;
359;SDS011;168;48.872;9.226;2023-07-02T03:17:04;6.40;;;4.80;;
359;SDS011;168;48.872;9.226;2023-07-02T03:19:32;7.33;;;5.97;;
359;SDS011;168;48.872;9.226;2023-07-02T03:22:00;7.10;;;6.40;;
359;SDS011;168;48.872;9.226;2023-07-02T03:24:28;7.53;;;5.90;;
359;SDS011;168;48.872;9.226;2023-07-02T03:26:55;7.40;;;6.53;;
359;SDS011;168;48.872;9.226;2023-07-02T03:29:22;9.13;;;7.00;;
359;SDS011;168;48.872;9.226;2023-07-02T03:31:50;10.07;;;7.07;;
359;SDS011;168;48.872;9.226;2023-07-02T03:34:17;9.97;;;7.57;;
359;SDS011;168;48.872;9.226;2023-07-02T03:36:44;7.80;;;7.03;;
359;SDS011;168;48.872;9.226;2023-07-02T03:39:13;7.20;;;6.33;;
359;SDS011;168;48.872;9.226;2023-07-02T03:41:40;8.50;;;6.33;;
359;SDS011;168;48.872;9.226;2023-07-02T03:44:08;9.03;;;6.10;;
359;SDS011;168;48.872;9.226;2023-07-02T03:46:35;9.47;;;6.07;;
359;SDS011;168;48.872;9.226;2023-07-02T03:49:03;8.70;;;6.63;;
359;SDS011;168;48.872;9.226;2023-07-02T03:51:30;7.70;;;6.63;;
359;SDS011;168;48.872;9.226;2023-07-02T03:53:58;8.17;;;6.60;;
359;SDS011;168;48.872;9.226;2023-07-02T03:56:27;10.10;;;7.23;;
359;SDS011;168;48.872;9.226;2023-07-02T03:58:54;8.53;;;6.23;;
359;SDS011;168;48.872;9.226;2023-07-02T04:01:22;8.00;;;6.60;;
359;SDS011;168;48.872;9.226;2023-07-02T04:03:49;11.90;;;7.10;;
359;SDS011;168;48.872;9.226;2023-07-02T04:06:18;11.63;;;7.47;;
359;SDS011;168;48.872;9.226;2023-07-02T04:08:46;8.90;;;7.03;;
359;SDS011;168;48.872;9.226;2023-07-02T04:11:13;11.50;;;7.10;;
359;SDS011;168;48.872;9.226;2023-07-02T04:13:42;8.67;;;6.23;;
359;SDS011;168;48.872;9.226;2023-07-02T04:16:09;8.50;;;7.60;;
359;SDS011;168;48.872;9.226;2023-07-02T04:18:37;9.90;;;7.27;;
359;SDS011;168;48.872;9.226;2023-07-02T04:21:04;10.90;;;8.60;;
359;SDS011;168;48.872;9.226;2023-07-02T04:23:31;10.57;;;7.13;;
359;SDS011;168;48.872;9.226;2023-07-02T04:25:59;9.53;;;7.50;;
359;SDS011;168;48.872;9.226;2023-07-02T04:28:26;11.13;;;7.80;;
359;SDS011;168;48.872;9.226;2023-07-02T04:30:55;13.43;;;7.30;;
359;SDS011;168;48.872;9.226;2023-07-02T04:33:22;14.03;;;7.17;;
359;SDS011;168;48.872;9.226;2023-07-02T04:35:49;8.17;;;7.00;;
359;SDS011;168;48.872;9.226;2023-07-02T04:38:16;8.00;;;7.20;;
359;SDS011;168;48.872;9.226;2023-07-02T04:40:44;11.33;;;6.67;;
359;SDS011;168;48.872;9.226;2023-07-02T04:43:11;8.50;;;7.03;;
359;SDS011;168;48.872;9.226;2023-07-02T04:45:38;9.60;;;5.80;;
359;SDS011;168;48.872;9.226;2023-07-02T04:48:11;6.80;;;5.70;;
359;SDS011;168;48.872;9.226;2023-07-02T04:50:39;7.47;;;5.93;;
359;SDS011;168;48.872;9.226;2023-07-02T04:53:06;8.20;;;6.57;;
359;SDS011;168;48.872;9.226;2023-07-02T04:55:33;9.33;;;5.80;;
359;SDS011;168;48.872;9.226;2023-07-02T04:58:01;10.27;;;5.83;;
359;SDS011;168;48.872;9.226;2023-07-02T05:00:28;8.47;;;6.10;;
359;SDS011;168;48.872;9.226;2023-07-02T05:02:55;8.10;;;5.13;;
359;SDS011;168;48.872;9.226;2023-07-02T05:05:24;6.23;;;5.63;;
359;SDS011;168;48.872;9.226;2023-07-02T05:07:53;8.53;;;5.27;;
359;SDS011;168;48.872;9.226;2023-07-02T05:10:21;9.33;;;5.37;;
359;SDS011;168;48.872;9.226;2023-07-02T05:12:48;8.93;;;5.37;;
359;SDS011;168;48.872;9.226;2023-07-02T05:15:15;6.50;;;5.53;;
359;SDS011;168;48.872;9.226;2023-07-02T05:17:43;6.57;;;4.97;;
359;SDS011;168;48.872;9.226;2023-07-02T05:20:10;7.27;;;4.70;;
359;SDS011;168;48.872;9.226;2023-07-02T05:22:39;6.40;;;5.13;;
359;SDS011;168;48.872;9.226;2023-07-02T05:25:07;7.03;;;4.93;;
359;SDS011;168;48.872;9.226;2023-07-02T05:27:35;9.70;;;5.00;;
359;SDS011;168;48.872;9.226;2023-07-02T05:30:02;6.87;;;5.27;;
359;SDS011;168;48.872;9.226;2023-07-02T05:32:30;8.20;;;4.80;;
359;SDS011;168;48.872;9.226;2023-07-02T05:34:57;6.80;;;4.73;;
359;SDS011;168;48.872;9.226;2023-07-02T05:37:24;7.10;;;4.87;;
359;SDS011;168;48.872;9.226;2023-07-02T05:39:53;8.03;;;5.47;;
359;SDS011;168;48.872;9.226;2023-07-02T05:42:21;7.33;;;5.30;;
359;SDS011;168;48.872;9.226;2023-07-02T05:44:48;10.13;;;5.33;;
359;SDS011;168;48.872;9.226;2023-07-02T05:47:16;7.10;;;4.73;;
359;SDS011;168;48.872;9.226;2023-07-02T05:49:43;6.13;;;5.20;;
359;SDS011;168;48.872;9.226;2023-07-02T05:52:11;8.57;;;5.23;;
359;SDS011;168;48.872;9.226;2023-07-02T05:54:38;8.10;;;5.30;;
359;SDS011;168;48.872;9.226;2023-07-02T05:57:08;7.27;;;5.50;;
359;SDS011;168;48.872;9.226;2023-07-02T05:59:35;7.37;;;6.03;;
359;SDS011;168;48.872;9.226;2023-07-02T06:02:04;7.90;;;6.70;;
359;SDS011;168;48.872;9.226;2023-07-02T06:04:31;10.50;;;6.80;;
359;SDS011;168;48.872;9.226;2023-07-02T06:06:58;10.90;;;6.60;;
359;SDS011;168;48.872;9.226;2023-07-02T06:09:26;7.70;;;6.63;;
359;SDS011;168;48.872;9.226;2023-07-02T06:11:53;9.00;;;7.20;;
359;SDS011;168;48.872;9.226;2023-07-02T06:14:22;9.70;;;6.87;;
359;SDS011;168;48.872;9.226;2023-07-02T06:16:51;10.23;;;7.10;;
359;SDS011;168;48.872;9.226;2023-07-02T06:19:18;7.90;;;6.20;;
359;SDS011;168;48.872;9.226;2023-07-02T06:21:45;10.90;;;6.57;;
359;SDS011;168;48.872;9.226;2023-07-02T06:24:13;8.23;;;6.40;;
359;SDS011;168;48.872;9.226;2023-07-02T06:26:40;11.30;;;6.50;;
359;SDS011;168;48.872;9.226;2023-07-02T06:29:07;10.40;;;6.90;;
359;SDS011;168;48.872;9.226;2023-07-02T06:31:36;10.83;;;6.87;;
359;SDS011;168;48.872;9.226;2023-07-02T06:34:03;10.93;;;7.27;;
359;SDS011;168;48.872;9.226;2023-07-02T06:36:31;9.17;;;7.00;;
359;SDS011;168;48.872;9.226;2023-07-02T06:38:58;9.27;;;7.00;;
359;SDS011;168;48.872;9.226;2023-07-02T06:41:25;13.27;;;7.90;;
359;SDS011;168;48.872;9.226;2023-07-02T06:43:53;8.23;;;6.80;;
359;SDS011;168;48.872;9.226;2023-07-02T06:46:20;11.30;;;7.03;;
359;SDS011;168;48.872;9.226;2023-07-02T06:48:49;9.10;;;6.93;;
359;SDS011;168;48.872;9.226;2023-07-02T06:51:16;11.03;;;7.40;;
359;SDS011;168;48.872;9.226;2023-07-02T06:53:44;11.10;;;7.93;;
359;SDS011;168;48.872;9.226;2023-07-02T06:56:12;8.77;;;7.10;;
359;SDS011;168;48.872;9.226;2023-07-02T06:58:39;11.30;;;7.10;;
359;SDS011;168;48.872;9.226;2023-07-02T07:01:08;10.17;;;7.47;;
359;SDS011;168;48.872;9.226;2023-07-02T07:03:36;9.20;;;6.53;;
359;SDS011;168;48.872;9.226;2023-07-02T07:06:05;9.43;;;7.50;;
359;SDS011;168;48.872;9.226;2023-07-02T07:08:32;8.80;;;7.10;;
359;SDS011;168;48.872;9.226;2023-07-02T07:10:59;10.60;;;7.50;;
359;SDS011;168;48.872;9.226;2023-07-02T07:13:27;10.60;;;7.27;;
359;SDS011;168;48.872;9.226;2023-07-02T07:15:54;11.60;;;7.53;;
359;SDS011;168;48.872;9.226;2023-07-02T07:18:22;9.30;;;7.73;;
359;SDS011;168;48.872;9.226;2023-07-02T07:20:49;10.00;;;7.67;;
359;SDS011;168;48.872;9.226;2023-07-02T07:23:19;10.90;;;8.13;;
359;SDS011;168;48.872;9.226;2023-07-02T07:25:46;15.40;;;10.00;;
359;SDS011;168;48.872;9.226;2023-07-02T07:28:14;15.13;;;10.80;;
359;SDS011;168;48.872;9.226;2023-07-02T07:30:42;13.50;;;9.90;;
359;SDS011;168;48.872;9.226;2023-07-02T07:33:09;16.50;;;10.50;;
359;SDS011;168;48.872;9.226;2023-07-02T07:35:37;13.67;;;10.43;;
359;SDS011;168;48.872;9.226;2023-07-02T07:38:04;14.70;;;11.67;;
359;SDS011;168;48.872;9.226;2023-07-02T07:40:33;12.83;;;10.37;;
359;SDS011;168;48.872;9.226;2023-07-02T07:43:00;18.20;;;11.33;;
359;SDS011;168;48.872;9.226;2023-07-02T07:45:28;15.83;;;11.03;;
359;SDS011;168;48.872;9.226;2023-07-02T07:47:55;16.33;;;10.90;;
359;SDS011;168;48.872;9.226;2023-07-02T07:50:22;13.03;;;9.50;;
359;SDS011;168;48.872;9.226;2023-07-02T07:52:49;11.80;;;10.57;;
359;SDS011;168;48.872;9.226;2023-07-02T07:55:17;15.20;;;12.50;;
359;SDS011;168;48.872;9.226;2023-07-02T07:57:46;14.57;;;10.83;;
359;SDS011;168;48.872;9.226;2023-07-02T08:00:14;18.20;;;12.03;;
359;SDS011;168;48.872;9.226;2023-07-02T08:02:45;17.70;;;11.50;;
359;SDS011;168;48.872;9.226;2023-07-02T08:05:21;14.83;;;11.23;;
359;SDS011;168;48.872;9.226;2023-07-02T08:07:50;14.20;;;11.60;;
359;SDS011;168;48.872;9.226;2023-07-02T08:10:20;18.50;;;12.63;;
359;SDS011;168;48.872;9.226;2023-07-02T08:12:52;17.70;;;12.87;;
359;SDS011;168;48.872;9.226;2023-07-02T08:15:20;15.00;;;12.20;;
359;SDS011;168;48.872;9.226;2023-07-02T08:17:53;16.27;;;13.10;;
359;SDS011;168;48.872;9.226;2023-07-02T08:20:24;22.20;;;13.33;;
359;SDS011;168;48.872;9.226;2023-07-02T08:22:52;18.20;;;12.40;;
359;SDS011;168;48.872;9.226;2023-07-02T08:25:24;16.90;;;13.00;;
359;SDS011;168;48.872;9.226;2023-07-02T08:27:56;22.30;;;12.90;;
359;SDS011;168;48.872;9.226;2023-07-02T08:30:27;19.07;;;12.23;;
359;SDS011;168;48.872;9.226;2023-07-02T08:32:56;15.20;;;12.10;;
359;SDS011;168;48.872;9.226;2023-07-02T08:35:26;16.90;;;12.83;;
359;SDS011;168;48.872;9.226;2023-07-02T08:37:54;20.50;;;14.00;;
359;SDS011;168;48.872;9.226;2023-07-02T08:40:22;17.50;;;13.63;;
359;SDS011;168;48.872;9.226;2023-07-02T08:43:00;17.87;;;13.83;;
359;SDS011;168;48.872;9.226;2023-07-02T08:45:28;16.90;;;14.13;;
359;SDS011;168;48.872;9.226;2023-07-02T08:47:58;18.50;;;14.10;;
359;SDS011;168;48.872;9.226;2023-07-02T08:50:29;25.33;;;13.13;;
359;SDS011;168;48.872;9.226;2023-07-02T08:53:01;15.37;;;12.63;;
359;SDS011;168;48.872;9.226;2023-07-02T08:55:34;18.10;;;13.10;;
359;SDS011;168;48.872;9.226;2023-07-02T08:58:14;16.20;;;13.13;;
359;SDS011;168;48.872;9.226;2023-07-02T09:03:36;16.00;;;12.53;;
359;SDS011;168;48.872;9.226;2023-07-02T09:06:04;16.20;;;11.67;;
359;SDS011;168;48.872;9.226;2023-07-02T09:08:36;18.93;;;14.20;;
359;SDS011;168;48.872;9.226;2023-07-02T09:11:08;16.43;;;13.13;;
359;SDS011;168;48.872;9.226;2023-07-02T09:13:45;14.77;;;11.70;;
359;SDS011;168;48.872;9.226;2023-07-02T09:16:24;15.20;;;12.10;;
359;SDS011;168;48.872;9.226;2023-07-02T09:19:01;14.90;;;12.60;;
359;SDS011;168;48.872;9.226;2023-07-02T09:21:40;17.60;;;13.50;;
359;SDS011;168;48.872;9.226;2023-07-02T09:24:18;17.33;;;13.10;;
359;SDS011;168;48.872;9.226;2023-07-02T09:26:47;16.43;;;13.10;;
359;SDS011;168;48.872;9.226;2023-07-02T09:29:18;17.00;;;12.93;;
359;SDS011;168;48.872;9.226;2023-07-02T09:31:47;19.00;;;12.73;;
359;SDS011;168;48.872;9.226;2023-07-02T09:34:15;17.93;;;13.40;;
359;SDS011;168;48.872;9.226;2023-07-02T09:36:43;15.53;;;12.60;;
359;SDS011;168;48.872;9.226;2023-07-02T09:39:11;15.67;;;13.37;;
359;SDS011;168;48.872;9.226;2023-07-02T09:41:40;16.27;;;13.13;;
359;SDS011;168;48.872;9.226;2023-07-02T09:44:09;19.27;;;14.77;;
359;SDS011;168;48.872;9.226;2023-07-02T09:46:41;17.63;;;14.07;;
359;SDS011;168;48.872;9.226;2023-07-02T09:49:14;19.23;;;13.10;;
359;SDS011;168;48.872;9.226;2023-07-02T09:51:50;16.60;;;14.30;;
359;SDS011;168;48.872;9.226;2023-07-02T09:54:26;15.13;;;13.10;;
359;SDS011;168;48.872;9.226;2023-07-02T09:56:54;14.83;;;12.63;;
359;SDS011;168;48.872;9.226;2023-07-02T09:59:22;17.50;;;13.30;;
359;SDS011;168;48.872;9.226;2023-07-02T10:01:51;16.93;;;14.40;;
359;SDS011;168;48.872;9.226;2023-07-02T10:04:21;19.70;;;15.00;;
359;SDS011;168;48.872;9.226;2023-07-02T10:06:50;19.10;;;12.93;;
359;SDS011;168;48.872;9.226;2023-07-02T10:09:19;17.80;;;14.03;;
359;SDS011;168;48.872;9.226;2023-07-02T10:11:47;16.70;;;13.80;;
359;SDS011;168;48.872;9.226;2023-07-02T10:14:14;17.97;;;13.67;;
359;SDS011;168;48.872;9.226;2023-07-02T10:16:48;16.13;;;12.80;;
359;SDS011;168;48.872;9.226;2023-07-02T10:19:21;15.60;;;12.93;;
359;SDS011;168;48.872;9.226;2023-07-02T10:22:00;16.37;;;13.13;;
359;SDS011;168;48.872;9.226;2023-07-02T10:24:28;17.20;;;13.10;;
359;SDS011;168;48.872;9.226;2023-07-02T10:26:57;17.10;;;13.23;;
359;SDS011;168;48.872;9.226;2023-07-02T10:29:26;18.30;;;12.93;;
359;SDS011;168;48.872;9.226;2023-07-02T10:31:55;17.80;;;13.80;;
359;SDS011;168;48.872;9.226;2023-07-02T10:34:32;14.60;;;13.00;;
359;SDS011;168;48.872;9.226;2023-07-02T10:37:01;18.00;;;13.53;;
359;SDS011;168;48.872;9.226;2023-07-02T10:39:29;18.50;;;13.60;;
359;SDS011;168;48.872;9.226;2023-07-02T10:42:04;16.40;;;13.87;;
359;SDS011;168;48.872;9.226;2023-07-02T10:44:46;15.33;;;12.60;;
359;SDS011;168;48.872;9.226;2023-07-02T10:47:14;19.40;;;15.20;;
359;SDS011;168;48.872;9.226;2023-07-02T10:49:46;20.03;;;15.00;;
359;SDS011;168;48.872;9.226;2023-07-02T10:52:14;18.83;;;14.60;;
359;SDS011;168;48.872;9.226;2023-07-02T10:54:42;21.07;;;14.43;;
359;SDS011;168;48.872;9.226;2023-07-02T10:57:12;19.60;;;14.97;;
359;SDS011;168;48.872;9.226;2023-07-02T10:59:46;17.40;;;13.20;;
359;SDS011;168;48.872;9.226;2023-07-02T11:02:14;17.97;;;14.13;;
359;SDS011;168;48.872;9.226;2023-07-02T11:04:42;17.67;;;14.43;;
359;SDS011;168;48.872;9.226;2023-07-02T11:07:13;16.53;;;14.60;;
359;SDS011;168;48.872;9.226;2023-07-02T11:09:49;16.90;;;13.57;;
359;SDS011;168;48.872;9.226;2023-07-02T11:12:27;17.47;;;14.10;;
359;SDS011;168;48.872;9.226;2023-07-02T11:14:59;17.23;;;13.57;;
359;SDS011;168;48.872;9.226;2023-07-02T11:17:44;18.33;;;14.10;;
359;SDS011;168;48.872;9.226;2023-07-02T11:20:14;16.97;;;13.80;;
359;SDS011;168;48.872;9.226;2023-07-02T11:22:47;20.70;;;14.30;;
359;SDS011;168;48.872;9.226;2023-07-02T11:25:23;17.77;;;14.10;;
359;SDS011;168;48.872;9.226;2023-07-02T11:28:07;18.90;;;14.43;;
359;SDS011;168;48.872;9.226;2023-07-02T11:30:44;16.20;;;13.13;;
359;SDS011;168;48.872;9.226;2023-07-02T11:33:12;17.20;;;15.00;;
359;SDS011;168;48.872;9.226;2023-07-02T11:35:40;16.33;;;14.63;;
359;SDS011;168;48.872;9.226;2023-07-02T11:38:10;18.10;;;14.10;;
359;SDS011;168;48.872;9.226;2023-07-02T11:40:38;17.10;;;14.50;;
359;SDS011;168;48.872;9.226;2023-07-02T11:43:12;16.43;;;12.00;;
359;SDS011;168;48.872;9.226;2023-07-02T11:48:48;16.60;;;13.60;;
359;SDS011;168;48.872;9.226;2023-07-02T11:51:18;16.73;;;14.73;;
359;SDS011;168;48.872;9.226;2023-07-02T11:54:01;18.33;;;15.53;;
359;SDS011;168;48.872;9.226;2023-07-02T11:56:33;15.23;;;13.27;;
359;SDS011;168;48.872;9.226;2023-07-02T11:59:04;13.63;;;12.23;;
359;SDS011;168;48.872;9.226;2023-07-02T12:01:32;18.50;;;14.63;;
359;SDS011;168;48.872;9.226;2023-07-02T12:04:04;15.10;;;13.00;;
359;SDS011;168;48.872;9.226;2023-07-02T12:06:35;15.80;;;13.40;;
359;SDS011;168;48.872;9.226;2023-07-02T12:09:08;18.83;;;14.77;;
359;SDS011;168;48.872;9.226;2023-07-02T12:11:37;17.43;;;14.13;;
359;SDS011;168;48.872;9.226;2023-07-02T12:17:00;21.23;;;15.00;;
359;SDS011;168;48.872;9.226;2023-07-02T12:19:33;15.73;;;13.37;;
359;SDS011;168;48.872;9.226;2023-07-02T12:39:14;17.20;;;13.80;;
359;SDS011;168;48.872;9.226;2023-07-02T12:45:13;16.70;;;14.90;;
359;SDS011;168;48.872;9.226;2023-07-02T12:47:54;18.27;;;14.63;;
359;SDS011;168;48.872;9.226;2023-07-02T12:50:29;14.63;;;13.13;;
359;SDS011;168;48.872;9.226;2023-07-02T12:52:58;16.37;;;13.37;;
359;SDS011;168;48.872;9.226;2023-07-02T12:55:31;17.13;;;14.17;;
359;SDS011;168;48.872;9.226;2023-07-02T12:57:58;15.93;;;14.23;;
359;SDS011;168;48.872;9.226;2023-07-02T13:00:26;16.83;;;15.10;;
359;SDS011;168;48.872;9.226;2023-07-02T13:02:54;15.90;;;13.03;;
359;SDS011;168;48.872;9.226;2023-07-02T13:05:22;15.10;;;13.23;;
359;SDS011;168;48.872;9.226;2023-07-02T13:07:58;16.07;;;14.30;;
359;SDS011;168;48.872;9.226;2023-07-02T13:10:25;17.93;;;14.13;;
359;SDS011;168;48.872;9.226;2023-07-02T13:12:56;16.20;;;14.10;;
359;SDS011;168;48.872;9.226;2023-07-02T13:15:23;18.10;;;15.37;;
359;SDS011;168;48.872;9.226;2023-07-02T13:17:53;17.20;;;14.87;;
359;SDS011;168;48.872;9.226;2023-07-02T13:20:21;17.20;;;14.43;;
359;SDS011;168;48.872;9.226;2023-07-02T13:22:50;17.57;;;15.70;;
359;SDS011;168;48.872;9.226;2023-07-02T13:25:18;17.93;;;15.00;;
359;SDS011;168;48.872;9.226;2023-07-02T13:27:49;18.70;;;15.13;;
359;SDS011;168;48.872;9.226;2023-07-02T13:30:16;16.33;;;14.63;;
359;SDS011;168;48.872;9.226;2023-07-02T13:32:46;16.77;;;13.97;;
359;SDS011;168;48.872;9.226;2023-07-02T13:35:19;17.70;;;14.67;;
359;SDS011;168;48.872;9.226;2023-07-02T13:37:48;15.60;;;13.97;;
359;SDS011;168;48.872;9.226;2023-07-02T13:40:19;17.07;;;14.00;;
359;SDS011;168;48.872;9.226;2023-07-02T13:42:46;17.90;;;13.70;;
359;SDS011;168;48.872;9.226;2023-07-02T13:45:16;16.83;;;13.87;;
359;SDS011;168;48.872;9.226;2023-07-02T13:47:54;18.50;;;14.90;;
359;SDS011;168;48.872;9.226;2023-07-02T13:50:30;20.50;;;15.07;;
359;SDS011;168;48.872;9.226;2023-07-02T13:52:57;18.93;;;15.07;;
359;SDS011;168;48.872;9.226;2023-07-02T13:55:27;16.17;;;13.50;;
359;SDS011;168;48.872;9.226;2023-07-02T13:58:08;19.20;;;14.40;;
359;SDS011;168;48.872;9.226;2023-07-02T14:00:40;17.50;;;15.17;;
359;SDS011;168;48.872;9.226;2023-07-02T14:03:07;16.37;;;14.40;;
359;SDS011;168;48.872;9.226;2023-07-02T14:05:36;17.47;;;14.03;;
359;SDS011;168;48.872;9.226;2023-07-02T14:08:09;15.23;;;13.17;;
359;SDS011;168;48.872;9.226;2023-07-02T14:10:37;16.97;;;15.03;;
359;SDS011;168;48.872;9.226;2023-07-02T14:13:04;16.33;;;14.60;;
359;SDS011;168;48.872;9.226;2023-07-02T14:15:32;16.70;;;14.00;;
359;SDS011;168;48.872;9.226;2023-07-02T14:18:00;15.33;;;13.73;;
359;SDS011;168;48.872;9.226;2023-07-02T14:20:28;15.40;;;13.23;;
359;SDS011;168;48.872;9.226;2023-07-02T14:22:55;15.70;;;13.30;;
359;SDS011;168;48.872;9.226;2023-07-02T14:25:23;17.10;;;14.83;;
359;SDS011;168;48.872;9.226;2023-07-02T14:27:50;16.97;;;14.30;;
359;SDS011;168;48.872;9.226;2023-07-02T14:30:18;17.17;;;14.30;;
359;SDS011;168;48.872;9.226;2023-07-02T14:32:45;16.30;;;14.13;;
359;SDS011;168;48.872;9.226;2023-07-02T14:35:15;18.47;;;14.30;;
359;SDS011;168;48.872;9.226;2023-07-02T14:37:45;14.53;;;12.90;;
359;SDS011;168;48.872;9.226;2023-07-02T14:40:13;15.80;;;14.10;;
359;SDS011;168;48.872;9.226;2023-07-02T14:42:40;15.00;;;13.40;;
359;SDS011;168;48.872;9.226;2023-07-02T14:45:08;14.80;;;13.30;;
359;SDS011;168;48.872;9.226;2023-07-02T14:47:35;16.00;;;13.37;;
359;SDS011;168;48.872;9.226;2023-07-02T14:50:03;15.13;;;13.53;;
359;SDS011;168;48.872;9.226;2023-07-02T14:52:33;15.67;;;13.70;;
359;SDS011;168;48.872;9.226;2023-07-02T14:55:00;14.90;;;12.30;;
359;SDS011;168;48.872;9.226;2023-07-02T14:57:30;16.07;;;13.50;;
359;SDS011;168;48.872;9.226;2023-07-02T14:59:57;14.67;;;13.03;;
359;SDS011;168;48.872;9.226;2023-07-02T15:02:25;15.77;;;13.23;;
359;SDS011;168;48.872;9.226;2023-07-02T15:04:52;14.57;;;13.00;;
359;SDS011;168;48.872;9.226;2023-07-02T15:07:19;15.60;;;12.70;;
359;SDS011;168;48.872;9.226;2023-07-02T15:09:49;16.03;;;13.67;;
359;SDS011;168;48.872;9.226;2023-07-02T15:12:16;15.87;;;13.30;;
359;SDS011;168;48.872;9.226;2023-07-02T15:14:44;13.50;;;11.70;;
359;SDS011;168;48.872;9.226;2023-07-02T15:17:11;17.23;;;13.90;;
359;SDS011;168;48.872;9.226;2023-07-02T15:19:39;14.33;;;12.93;;
359;SDS011;168;48.872;9.226;2023-07-02T15:22:06;14.13;;;12.63;;
359;SDS011;168;48.872;9.226;2023-07-02T15:24:33;15.03;;;13.30;;
359;SDS011;168;48.872;9.226;2023-07-02T15:27:02;14.73;;;12.90;;
359;SDS011;168;48.872;9.226;2023-07-02T15:29:30;16.47;;;13.90;;
359;SDS011;168;48.872;9.226;2023-07-02T15:31:57;15.53;;;13.83;;
359;SDS011;168;48.872;9.226;2023-07-02T15:34:25;15.40;;;13.70;;
359;SDS011;168;48.872;9.226;2023-07-02T15:36:52;14.70;;;12.27;;
359;SDS011;168;48.872;9.226;2023-07-02T15:39:20;18.30;;;14.90;;
359;SDS011;168;48.872;9.226;2023-07-02T15:41:57;15.47;;;13.73;;
359;SDS011;168;48.872;9.226;2023-07-02T15:45:18;14.33;;;12.90;;
359;SDS011;168;48.872;9.226;2023-07-02T15:47:45;15.77;;;14.10;;
359;SDS011;168;48.872;9.226;2023-07-02T15:50:13;15.53;;;13.90;;
359;SDS011;168;48.872;9.226;2023-07-02T15:52:40;16.60;;;13.27;;
359;SDS011;168;48.872;9.226;2023-07-02T15:55:08;15.07;;;12.27;;
359;SDS011;168;48.872;9.226;2023-07-02T15:57:35;16.20;;;13.03;;
359;SDS011;168;48.872;9.226;2023-07-02T16:00:04;14.23;;;12.60;;
359;SDS011;168;48.872;9.226;2023-07-02T16:02:33;15.30;;;13.30;;
359;SDS011;168;48.872;9.226;2023-07-02T16:05:00;14.40;;;12.70;;
359;SDS011;168;48.872;9.226;2023-07-02T16:07:28;14.97;;;13.43;;
359;SDS011;168;48.872;9.226;2023-07-02T16:09:55;15.60;;;12.70;;